createdAt,value
2018-04-25T00:02:13.791Z,14.89
2018-04-25T00:04:39.734Z,14.96
2018-04-25T00:07:05.695Z,15.07
2018-04-25T00:09:31.648Z,15.18
2018-04-25T00:11:57.608Z,15.10
2018-04-25T00:14:23.537Z,14.99
2018-04-25T00:16:49.481Z,15.06
2018-04-25T00:19:15.407Z,15.23
2018-04-25T00:21:41.343Z,15.12
2018-04-25T00:24:07.274Z,15.08
2018-04-25T00:26:33.196Z,15.07
2018-04-25T00:28:59.138Z,15.09
2018-04-25T00:31:25.070Z,15.16
2018-04-25T00:33:51.013Z,15.18
2018-04-25T00:36:16.947Z,15.22
2018-04-25T00:38:42.896Z,15.30
2018-04-25T00:41:08.864Z,15.27
2018-04-25T00:43:34.824Z,15.08
2018-04-25T00:46:00.761Z,15.01
2018-04-25T00:48:26.741Z,15.31
2018-04-25T00:50:52.660Z,15.28
2018-04-25T00:53:18.612Z,15.11
2018-04-25T00:55:44.553Z,14.96
2018-04-25T00:58:10.528Z,14.97
2018-04-25T01:00:36.497Z,15.10
2018-04-25T01:03:02.522Z,15.21
2018-04-25T01:05:28.454Z,15.19
2018-04-25T01:07:54.378Z,15.16
2018-04-25T01:10:20.332Z,15.21
2018-04-25T01:12:46.271Z,15.32
2018-04-25T01:15:12.203Z,15.19
2018-04-25T01:17:38.138Z,15.03
2018-04-25T01:20:04.070Z,15.01
2018-04-25T01:22:30.034Z,15.06
2018-04-25T01:24:55.967Z,15.31
2018-04-25T01:27:21.900Z,15.29
2018-04-25T01:29:47.865Z,15.05
2018-04-25T01:32:13.807Z,15.32
2018-04-25T01:34:39.756Z,15.34
2018-04-25T01:37:05.690Z,15.34
2018-04-25T01:39:31.655Z,15.30
2018-04-25T01:41:57.589Z,15.30
2018-04-25T01:44:23.556Z,15.25
2018-04-25T01:46:49.504Z,15.31
2018-04-25T01:49:15.446Z,15.20
2018-04-25T01:51:41.398Z,15.33
2018-04-25T01:54:07.337Z,15.24
2018-04-25T01:56:33.300Z,15.27
2018-04-25T01:58:59.248Z,15.20
2018-04-25T02:01:25.215Z,15.21
2018-04-25T02:03:51.142Z,15.23
2018-04-25T02:06:17.094Z,15.40
2018-04-25T02:08:43.035Z,15.51
2018-04-25T02:11:08.981Z,15.37
2018-04-25T02:13:34.916Z,15.27
2018-04-25T02:16:00.858Z,15.38
2018-04-25T02:18:26.795Z,15.26
2018-04-25T02:20:52.729Z,15.30
2018-04-25T02:23:18.663Z,15.24
2018-04-25T02:25:44.616Z,15.29
2018-04-25T02:28:10.579Z,15.33
2018-04-25T02:30:36.554Z,15.20
2018-04-25T02:33:02.485Z,15.47
2018-04-25T02:35:28.454Z,15.46
2018-04-25T02:37:54.383Z,15.32
2018-04-25T02:40:20.336Z,15.41
2018-04-25T02:42:46.268Z,15.53
2018-04-25T02:45:12.213Z,15.46
2018-04-25T02:47:38.140Z,15.38
2018-04-25T02:50:04.108Z,15.29
2018-04-25T02:52:30.081Z,15.33
2018-04-25T02:54:56.049Z,15.52
2018-04-25T02:57:21.991Z,15.48
2018-04-25T02:59:47.965Z,15.40
2018-04-25T03:02:13.900Z,15.54
2018-04-25T03:04:39.821Z,15.46
2018-04-25T03:07:05.768Z,15.56
2018-04-25T03:09:31.705Z,15.70
2018-04-25T03:11:57.673Z,15.85
2018-04-25T03:14:23.621Z,16.03
2018-04-25T03:16:49.659Z,16.24
2018-04-25T03:19:15.610Z,16.45
2018-04-25T03:21:41.603Z,16.51
2018-04-25T03:24:07.537Z,16.59
2018-04-25T03:26:33.471Z,16.66
2018-04-25T03:28:59.397Z,16.79
2018-04-25T03:31:25.352Z,16.78
2018-04-25T03:33:51.296Z,16.86
2018-04-25T03:36:17.239Z,16.85
2018-04-25T03:38:43.174Z,16.88
2018-04-25T03:41:09.169Z,16.88
2018-04-25T03:43:35.084Z,16.96
2018-04-25T03:46:01.012Z,16.83
2018-04-25T03:48:26.995Z,16.91
2018-04-25T03:50:52.962Z,16.88
2018-04-25T03:53:18.899Z,16.84
2018-04-25T03:55:44.877Z,16.92
2018-04-25T03:58:10.811Z,16.92
2018-04-25T04:00:36.761Z,16.90
2018-04-25T04:03:02.732Z,16.93
2018-04-25T04:05:28.675Z,16.98
2018-04-25T04:07:54.604Z,16.94
2018-04-25T04:10:20.540Z,16.92
2018-04-25T04:12:46.488Z,16.99
2018-04-25T04:15:12.440Z,17.09
2018-04-25T04:17:38.365Z,16.99
2018-04-25T04:20:04.285Z,17.01
2018-04-25T04:22:30.232Z,17.00
2018-04-25T04:24:56.204Z,17.05
2018-04-25T04:27:22.139Z,17.10
2018-04-25T04:29:48.097Z,17.14
2018-04-25T04:32:14.037Z,17.09
2018-04-25T04:34:39.987Z,17.13
2018-04-25T04:37:05.946Z,17.14
2018-04-25T04:39:31.877Z,17.25
2018-04-25T04:41:57.852Z,17.41
2018-04-25T04:44:23.782Z,17.57
2018-04-25T04:46:49.720Z,17.77
2018-04-25T04:49:15.647Z,17.95
2018-04-25T04:51:41.623Z,18.01
2018-04-25T04:54:07.572Z,18.17
2018-04-25T04:56:33.544Z,18.27
2018-04-25T04:58:59.476Z,18.35
2018-04-25T05:01:25.410Z,18.40
2018-04-25T05:03:51.334Z,18.54
2018-04-25T05:06:17.253Z,18.74
2018-04-25T05:08:43.269Z,18.82
2018-04-25T05:11:09.140Z,18.89
2018-04-25T05:13:35.061Z,18.89
2018-04-25T05:16:01.008Z,18.94
2018-04-25T05:18:26.935Z,18.99
2018-04-25T05:20:52.857Z,19.11
2018-04-25T05:23:18.813Z,19.32
2018-04-25T05:25:44.757Z,19.50
2018-04-25T05:28:10.698Z,19.72
2018-04-25T05:30:36.654Z,19.83
2018-04-25T05:33:02.597Z,20.04
2018-04-25T05:35:28.517Z,20.12
2018-04-25T05:37:54.467Z,20.25
2018-04-25T05:40:20.409Z,20.27
2018-04-25T05:42:46.367Z,20.37
2018-04-25T05:45:12.299Z,20.49
2018-04-25T05:47:38.241Z,20.64
2018-04-25T05:50:04.172Z,20.71
2018-04-25T05:52:30.120Z,20.80
2018-04-25T05:54:56.052Z,20.85
2018-04-25T05:57:22.109Z,21.05
2018-04-25T05:59:48.140Z,21.31
2018-04-25T06:02:14.080Z,21.51
2018-04-25T06:04:40.006Z,21.68
2018-04-25T06:07:06.016Z,21.86
2018-04-25T06:09:31.892Z,21.74
2018-04-25T06:11:57.809Z,21.59
2018-04-25T06:14:24.084Z,21.70
2018-04-25T06:16:50.035Z,21.16
2018-04-25T06:19:16.053Z,20.84
2018-04-25T06:21:41.996Z,20.53
2018-04-25T06:24:08.253Z,20.41
2018-04-25T06:26:34.232Z,20.47
2018-04-25T06:29:00.133Z,20.45
2018-04-25T06:31:26.061Z,20.51
2018-04-25T06:33:52.037Z,20.46
2018-04-25T06:36:17.971Z,20.53
2018-04-25T06:38:43.941Z,20.62
2018-04-25T06:41:09.936Z,20.65
2018-04-25T06:43:35.860Z,20.68
2018-04-25T06:46:01.797Z,20.82
2018-04-25T06:48:27.735Z,20.85
2018-04-25T06:50:53.688Z,20.63
2018-04-25T06:53:19.629Z,20.46
2018-04-25T06:55:45.553Z,20.46
2018-04-25T06:58:11.503Z,20.17
2018-04-25T07:00:37.482Z,20.31
2018-04-25T07:03:03.414Z,20.32
2018-04-25T07:05:29.370Z,20.30
2018-04-25T07:07:55.351Z,20.19
2018-04-25T07:10:21.321Z,20.17
2018-04-25T07:12:47.462Z,20.12
2018-04-25T07:15:13.440Z,20.09
2018-04-25T07:17:39.392Z,20.09
2018-04-25T07:20:05.588Z,20.20
2018-04-25T07:22:31.514Z,20.17
2018-04-25T07:24:57.529Z,20.17
2018-04-25T07:27:23.481Z,19.94
2018-04-25T07:29:49.433Z,20.09
2018-04-25T07:32:15.369Z,20.17
2018-04-25T07:34:41.288Z,20.07
2018-04-25T07:37:07.204Z,19.87
2018-04-25T07:39:33.130Z,19.93
2018-04-25T07:41:59.099Z,19.82
2018-04-25T07:44:25.001Z,19.72
2018-04-25T07:46:50.957Z,19.71
2018-04-25T07:49:16.899Z,19.72
2018-04-25T07:51:42.857Z,19.81
2018-04-25T07:54:08.790Z,19.99
2018-04-25T07:56:34.721Z,20.05
2018-04-25T07:59:00.657Z,20.39
2018-04-25T08:01:26.615Z,20.46
2018-04-25T08:03:52.543Z,20.68
2018-04-25T08:06:18.486Z,20.86
2018-04-25T08:08:44.431Z,21.36
2018-04-25T08:11:10.393Z,21.21
2018-04-25T08:13:36.323Z,22.08
2018-04-25T08:16:02.259Z,23.51
2018-04-25T08:18:28.195Z,23.87
2018-04-25T08:20:54.154Z,24.63
2018-04-25T08:23:20.103Z,24.14
2018-04-25T08:25:46.032Z,23.68
2018-04-25T08:28:12.011Z,24.74
2018-04-25T08:30:38.296Z,24.79
2018-04-25T08:33:04.618Z,24.25
2018-04-25T08:35:30.571Z,23.12
2018-04-25T08:37:56.504Z,23.12
2018-04-25T08:40:22.447Z,23.11
2018-04-25T08:42:48.402Z,22.76
2018-04-25T08:45:14.395Z,22.66
2018-04-25T08:47:40.337Z,22.71
2018-04-25T08:50:06.317Z,22.58
2018-04-25T08:52:32.266Z,22.17
2018-04-25T08:54:58.255Z,22.18
2018-04-25T08:57:24.209Z,22.06
2018-04-25T08:59:50.171Z,22.03
2018-04-25T09:02:16.097Z,21.95
2018-04-25T09:04:42.080Z,21.80
2018-04-25T09:07:08.014Z,21.82
2018-04-25T09:09:34.351Z,21.77
2018-04-25T09:12:00.365Z,21.87
2018-04-25T09:14:26.260Z,21.80
2018-04-25T09:16:52.200Z,21.76
2018-04-25T09:19:18.153Z,21.85
2018-04-25T09:21:44.171Z,21.83
2018-04-25T09:24:10.117Z,21.53
2018-04-25T09:26:36.040Z,21.50
2018-04-25T09:29:02.094Z,21.65
2018-04-25T09:31:28.088Z,21.57
2018-04-25T09:33:54.052Z,21.68
2018-04-25T09:36:20.007Z,21.62
2018-04-25T09:38:45.975Z,21.48
2018-04-25T09:41:11.923Z,21.44
2018-04-25T09:43:37.908Z,21.43
2018-04-25T09:46:04.128Z,21.31
2018-04-25T09:48:30.068Z,21.20
2018-04-25T09:50:56.032Z,21.28
2018-04-25T09:53:22.013Z,21.23
2018-04-25T09:55:47.985Z,21.26
2018-04-25T09:58:13.951Z,21.26
2018-04-25T10:00:39.912Z,21.32
2018-04-25T10:03:05.876Z,21.34
2018-04-25T10:05:31.897Z,21.39
2018-04-25T10:07:57.861Z,21.43
2018-04-25T10:10:23.919Z,21.41
2018-04-25T10:12:49.885Z,21.43
2018-04-25T10:15:15.825Z,21.33
2018-04-25T10:17:41.799Z,21.32
2018-04-25T10:20:07.768Z,21.23
2018-04-25T10:22:33.736Z,21.32
2018-04-25T10:24:59.680Z,21.34
2018-04-25T10:27:25.629Z,21.36
2018-04-25T10:29:51.560Z,21.27
2018-04-25T10:32:17.502Z,21.32
2018-04-25T10:34:43.885Z,21.49
2018-04-25T10:37:09.882Z,21.36
2018-04-25T10:39:35.986Z,21.35
2018-04-25T10:42:01.980Z,21.35
2018-04-25T10:44:27.935Z,21.37
2018-04-25T10:46:53.873Z,21.39
2018-04-25T10:49:19.821Z,21.54
2018-04-25T10:51:45.780Z,21.59
2018-04-25T10:54:11.755Z,21.43
2018-04-25T10:56:37.694Z,21.34
2018-04-25T10:59:03.978Z,21.20
2018-04-25T11:01:29.913Z,21.12
2018-04-25T11:03:55.848Z,21.20
2018-04-25T11:06:22.591Z,21.24
2018-04-25T11:08:48.548Z,21.26
2018-04-25T11:11:14.536Z,21.13
2018-04-25T11:13:40.466Z,21.20
2018-04-25T11:16:06.429Z,21.27
2018-04-25T11:18:32.397Z,21.32
2018-04-25T11:20:58.351Z,21.28
2018-04-25T11:23:24.311Z,21.33
2018-04-25T11:25:50.269Z,21.19
2018-04-25T11:28:16.204Z,21.02
2018-04-25T11:30:42.138Z,21.00
2018-04-25T11:33:08.080Z,21.08
2018-04-25T11:35:34.057Z,21.08
2018-04-25T11:38:00.009Z,21.27
2018-04-25T11:40:26.173Z,21.25
2018-04-25T11:42:52.174Z,21.21
2018-04-25T11:45:18.117Z,21.18
2018-04-25T11:47:44.073Z,21.17
2018-04-25T11:50:10.011Z,21.09
2018-04-25T11:52:36.007Z,20.99
2018-04-25T11:55:01.946Z,21.05
2018-04-25T11:57:27.920Z,21.00
2018-04-25T11:59:53.912Z,20.99
2018-04-25T12:02:19.843Z,20.91
2018-04-25T12:04:45.811Z,20.98
2018-04-25T12:07:11.769Z,21.10
2018-04-25T12:09:37.722Z,21.09
2018-04-25T12:12:03.672Z,21.12
2018-04-25T12:14:29.898Z,21.11
2018-04-25T12:16:55.826Z,21.02
2018-04-25T12:19:21.756Z,21.00
2018-04-25T12:21:47.753Z,20.96
2018-04-25T12:24:13.700Z,21.01
2018-04-25T12:26:39.629Z,20.99
2018-04-25T12:29:05.587Z,21.01
2018-04-25T12:31:31.521Z,20.98
2018-04-25T12:33:57.465Z,20.92
2018-04-25T12:36:23.441Z,20.97
2018-04-25T12:38:49.384Z,21.01
2018-04-25T12:41:15.330Z,20.93
2018-04-25T12:43:41.256Z,20.83
2018-04-25T12:46:07.215Z,20.79
2018-04-25T12:48:33.404Z,20.85
2018-04-25T12:50:59.352Z,20.77
2018-04-25T12:53:25.272Z,20.78
2018-04-25T12:55:51.307Z,20.80
2018-04-25T12:58:17.248Z,20.75
2018-04-25T13:00:43.186Z,20.72
2018-04-25T13:03:09.139Z,20.72
2018-04-25T13:05:35.144Z,20.68
2018-04-25T13:08:01.065Z,20.49
2018-04-25T13:10:27.044Z,20.32
2018-04-25T13:12:52.970Z,19.96
2018-04-25T13:15:18.929Z,19.81
2018-04-25T13:17:44.870Z,19.63
2018-04-25T13:20:10.789Z,19.75
2018-04-25T13:22:36.805Z,19.97
2018-04-25T13:25:02.738Z,20.15
2018-04-25T13:27:28.687Z,20.23
2018-04-25T13:29:54.629Z,20.28
2018-04-25T13:32:20.621Z,20.25
2018-04-25T13:34:46.574Z,20.17
2018-04-25T13:37:12.553Z,20.14
2018-04-25T13:39:38.490Z,20.31
2018-04-25T13:42:04.506Z,20.23
2018-04-25T13:44:30.453Z,20.40
2018-04-25T13:46:56.381Z,20.26
2018-04-25T13:49:22.324Z,20.33
2018-04-25T13:51:48.313Z,20.44
2018-04-25T13:54:14.315Z,20.51
2018-04-25T13:56:40.265Z,20.31
2018-04-25T13:59:06.404Z,20.16
2018-04-25T14:01:32.474Z,20.21
2018-04-25T14:03:58.475Z,20.24
2018-04-25T14:06:24.428Z,20.30
2018-04-25T14:08:50.384Z,20.52
2018-04-25T14:11:16.372Z,20.63
2018-04-25T14:13:42.346Z,20.58
2018-04-25T14:16:08.299Z,20.63
2018-04-25T14:18:34.255Z,20.56
2018-04-25T14:21:00.259Z,20.41
2018-04-25T14:23:26.184Z,20.39
2018-04-25T14:25:52.144Z,20.36
2018-04-25T14:28:18.087Z,20.33
2018-04-25T14:30:44.088Z,20.39
2018-04-25T14:33:10.030Z,20.30
2018-04-25T14:35:36.015Z,20.42
2018-04-25T14:38:02.005Z,20.46
2018-04-25T14:40:27.946Z,20.37
2018-04-25T14:42:53.902Z,20.23
2018-04-25T14:45:19.888Z,20.27
2018-04-25T14:47:45.861Z,20.19
2018-04-25T14:50:11.897Z,20.23
2018-04-25T14:52:37.830Z,19.82
2018-04-25T14:55:03.832Z,19.49
2018-04-25T14:57:29.769Z,19.41
2018-04-25T14:59:56.064Z,19.05
2018-04-25T15:02:22.009Z,19.09
2018-04-25T15:04:47.953Z,18.79
2018-04-25T15:07:13.957Z,18.74
2018-04-25T15:09:40.285Z,18.91
2018-04-25T15:12:06.227Z,18.85
2018-04-25T15:14:32.210Z,18.93
2018-04-25T15:16:58.159Z,18.73
2018-04-25T15:19:24.132Z,18.96
2018-04-25T15:21:50.128Z,18.80
2018-04-25T15:24:16.105Z,18.98
2018-04-25T15:26:42.071Z,18.76
2018-04-25T15:29:08.027Z,18.70
2018-04-25T15:31:33.977Z,19.07
2018-04-25T15:33:59.916Z,19.05
2018-04-25T15:36:26.206Z,18.56
2018-04-25T15:38:52.169Z,18.47
2018-04-25T15:41:18.120Z,18.40
2018-04-25T15:43:44.070Z,18.79
2018-04-25T15:46:10.038Z,18.59
2018-04-25T15:48:36.153Z,18.76
2018-04-25T15:51:02.250Z,18.62
2018-04-25T15:53:28.309Z,18.74
2018-04-25T15:55:54.229Z,18.60
2018-04-25T15:58:20.185Z,18.66
2018-04-25T16:00:46.149Z,18.43
2018-04-25T16:03:12.129Z,18.59
2018-04-25T16:05:38.080Z,18.53
2018-04-25T16:08:04.057Z,18.70
2018-04-25T16:10:30.033Z,18.77
2018-04-25T16:12:55.974Z,18.49
2018-04-25T16:15:21.972Z,18.67
2018-04-25T16:17:47.937Z,18.68
2018-04-25T16:20:13.898Z,18.68
2018-04-25T16:22:39.822Z,18.71
2018-04-25T16:25:05.849Z,18.72
2018-04-25T16:27:31.812Z,18.57
2018-04-25T16:29:57.759Z,18.76
2018-04-25T16:32:23.751Z,18.70
2018-04-25T16:34:49.749Z,18.45
2018-04-25T16:37:15.760Z,18.53
2018-04-25T16:39:41.700Z,18.50
2018-04-25T16:42:07.670Z,18.41
2018-04-25T16:44:33.682Z,18.12
2018-04-25T16:46:59.595Z,18.24
2018-04-25T16:49:25.593Z,18.25
2018-04-25T16:51:51.524Z,18.14
2018-04-25T16:54:17.471Z,18.32
2018-04-25T16:56:43.411Z,18.20
2018-04-25T16:59:09.383Z,18.09
2018-04-25T17:01:35.341Z,18.00
2018-04-25T17:04:01.316Z,17.76
2018-04-25T17:06:27.274Z,17.62
2018-04-25T17:08:53.248Z,17.81
2018-04-25T17:11:19.202Z,17.88
2018-04-25T17:13:45.203Z,17.77
2018-04-25T17:16:11.172Z,17.69
2018-04-25T17:18:37.131Z,17.72
2018-04-25T17:21:03.061Z,17.71
2018-04-25T17:23:29.062Z,17.63
2018-04-25T17:25:55.020Z,17.74
2018-04-25T17:28:21.026Z,17.50
2018-04-25T17:30:47.010Z,17.66
2018-04-25T17:33:12.975Z,17.30
2018-04-25T17:35:39.248Z,17.32
2018-04-25T17:38:05.187Z,17.27
2018-04-25T17:40:31.145Z,17.13
2018-04-25T17:42:57.082Z,16.78
2018-04-25T17:45:23.056Z,16.71
2018-04-25T17:47:49.052Z,17.10
2018-04-25T17:50:14.985Z,17.27
2018-04-25T17:52:40.938Z,16.89
2018-04-25T17:55:06.891Z,17.10
2018-04-25T17:57:33.163Z,16.74
2018-04-25T17:59:59.046Z,16.46
2018-04-25T18:02:25.003Z,16.39
2018-04-25T18:04:50.970Z,16.72
2018-04-25T18:07:16.930Z,16.45
2018-04-25T18:09:42.879Z,16.39
2018-04-25T18:12:08.805Z,16.38
2018-04-25T18:14:34.774Z,16.31
2018-04-25T18:17:00.755Z,16.66
2018-04-25T18:19:26.731Z,16.63
2018-04-25T18:21:52.672Z,16.86
2018-04-25T18:24:18.644Z,16.79
2018-04-25T18:26:44.644Z,16.56
2018-04-25T18:29:10.677Z,16.65
2018-04-25T18:31:36.637Z,16.68
2018-04-25T18:34:02.597Z,16.63
2018-04-25T18:36:28.569Z,16.68
2018-04-25T18:38:54.541Z,16.60
2018-04-25T18:41:20.508Z,16.55
2018-04-25T18:43:46.449Z,16.60
2018-04-25T18:46:12.450Z,16.56
2018-04-25T18:48:38.421Z,16.46
2018-04-25T18:51:04.520Z,16.64
2018-04-25T18:53:34.386Z,16.57
2018-04-25T18:56:00.381Z,16.79
2018-04-25T18:58:26.491Z,16.53
2018-04-25T19:00:52.495Z,16.68
2018-04-25T19:03:18.539Z,16.96
2018-04-25T19:05:44.461Z,16.93
2018-04-25T19:08:10.429Z,16.89
2018-04-25T19:10:36.372Z,16.98
2018-04-25T19:13:02.318Z,16.75
2018-04-25T19:15:28.272Z,16.92
2018-04-25T19:17:54.298Z,16.75
2018-04-25T19:20:20.252Z,16.76
2018-04-25T19:22:46.206Z,16.79
2018-04-25T19:25:12.161Z,16.80
2018-04-25T19:27:38.148Z,16.71
2018-04-25T19:30:04.107Z,16.90
2018-04-25T19:32:30.123Z,16.73
2018-04-25T19:34:56.057Z,16.87
2018-04-25T19:37:22.105Z,16.87
2018-04-25T19:39:48.081Z,16.95
2018-04-25T19:42:14.061Z,16.69
2018-04-25T19:44:40.021Z,16.56
2018-04-25T19:47:06.008Z,16.18
2018-04-25T19:49:31.954Z,16.20
2018-04-25T19:51:57.954Z,16.24
2018-04-25T19:54:23.924Z,16.10
2018-04-25T19:56:49.903Z,16.12
2018-04-25T19:59:15.855Z,15.85
2018-04-25T20:01:41.849Z,15.85
2018-04-25T20:04:07.863Z,15.98
2018-04-25T20:06:33.898Z,15.98
2018-04-25T20:08:59.897Z,15.92
2018-04-25T20:11:26.148Z,15.87
2018-04-25T20:13:52.110Z,15.73
2018-04-25T20:16:18.109Z,15.80
2018-04-25T20:18:44.073Z,15.66
2018-04-25T20:21:10.026Z,15.62
2018-04-25T20:23:35.988Z,15.72
2018-04-25T20:26:01.962Z,15.69
2018-04-25T20:28:27.985Z,15.50
2018-04-25T20:30:53.925Z,15.58
2018-04-25T20:33:19.872Z,15.83
2018-04-25T20:35:45.839Z,15.81
2018-04-25T20:38:12.912Z,15.91
2018-04-25T20:40:38.891Z,15.97
2018-04-25T20:43:04.860Z,15.90
2018-04-25T20:45:30.799Z,15.77
2018-04-25T20:47:56.986Z,15.85
2018-04-25T20:50:22.937Z,15.93
2018-04-25T20:52:48.896Z,15.83
2018-04-25T20:55:14.850Z,15.87
2018-04-25T20:57:41.038Z,15.62
2018-04-25T21:00:06.995Z,15.62
2018-04-25T21:02:33.014Z,15.60
2018-04-25T21:04:58.926Z,15.44
2018-04-25T21:07:24.896Z,15.68
2018-04-25T21:09:50.873Z,15.68
2018-04-25T21:12:16.802Z,15.21
2018-04-25T21:14:42.808Z,15.19
2018-04-25T21:17:08.751Z,15.31
2018-04-25T21:19:35.011Z,15.48
2018-04-25T21:22:00.954Z,15.41
2018-04-25T21:24:26.903Z,15.56
2018-04-25T21:26:52.849Z,15.37
2018-04-25T21:29:18.819Z,15.43
2018-04-25T21:31:44.772Z,15.36
2018-04-25T21:34:11.049Z,15.22
2018-04-25T21:36:36.977Z,15.03
2018-04-25T21:39:02.903Z,14.84
2018-04-25T21:41:28.853Z,14.78
2018-04-25T21:43:54.801Z,14.90
2018-04-25T21:46:20.760Z,14.96
2018-04-25T21:48:46.716Z,15.01
2018-04-25T21:51:12.692Z,14.78
2018-04-25T21:53:38.640Z,14.84
2018-04-25T21:56:04.571Z,14.96
2018-04-25T21:58:30.526Z,14.76
2018-04-25T22:00:56.469Z,14.74
2018-04-25T22:03:22.445Z,14.83
2018-04-25T22:05:48.430Z,14.94
2018-04-25T22:08:14.410Z,14.92
2018-04-25T22:10:40.370Z,15.14
2018-04-25T22:13:06.320Z,15.07
2018-04-25T22:15:32.271Z,15.16
2018-04-25T22:17:58.216Z,15.48
2018-04-25T22:20:24.175Z,15.53
2018-04-25T22:22:50.115Z,15.52
2018-04-25T22:25:16.083Z,15.48
2018-04-25T22:27:42.034Z,15.63
2018-04-25T22:30:07.986Z,15.77
2018-04-25T22:32:33.938Z,15.77
2018-04-25T22:34:59.894Z,15.64
2018-04-25T22:37:25.844Z,15.60
2018-04-25T22:39:51.774Z,15.46
2018-04-25T22:42:17.704Z,15.33
2018-04-25T22:44:43.642Z,15.57
2018-04-25T22:47:09.564Z,15.61
2018-04-25T22:49:35.554Z,15.71
2018-04-25T22:52:01.500Z,15.68
2018-04-25T22:54:27.443Z,15.41
2018-04-25T22:56:53.422Z,15.62
2018-04-25T22:59:19.354Z,15.36
2018-04-25T23:01:45.293Z,15.12
2018-04-25T23:04:11.259Z,15.00
2018-04-25T23:06:37.249Z,15.01
2018-04-25T23:09:03.173Z,15.06
2018-04-25T23:11:29.160Z,14.77
2018-04-25T23:13:55.104Z,14.79
2018-04-25T23:16:21.070Z,14.69
2018-04-25T23:18:47.043Z,14.59
2018-04-25T23:21:12.993Z,14.59
2018-04-25T23:23:38.932Z,14.97
2018-04-25T23:26:04.931Z,15.14
2018-04-25T23:28:30.880Z,14.80
2018-04-25T23:30:56.835Z,14.59
2018-04-25T23:33:22.795Z,14.64
2018-04-25T23:35:48.747Z,14.66
2018-04-25T23:38:14.703Z,14.75
2018-04-25T23:40:40.645Z,14.66
2018-04-25T23:43:06.616Z,14.67
2018-04-25T23:45:32.554Z,14.62
2018-04-25T23:47:58.512Z,14.78
2018-04-25T23:50:24.441Z,14.83
2018-04-25T23:52:50.665Z,14.62
2018-04-25T23:55:16.613Z,14.72
2018-04-25T23:57:42.554Z,14.47
